Overview Statistics Trail Chart Weather Telemetry Raw packets
 

This is the latest recevied weather packets stored in our database for station/object OK4PZ-5. If no packets are shown the sender has not sent any weather packets the latest 10 day(s).

<< 17 18 19 20 21 22 23 >>
Time Temp. Humidity Pressure Rain* Wind** Luminosity Snow
1788201003 17.78° C 78% 1019 hPa 0 mm - - -
1788200102 17.78° C 75% 1019 hPa 0 mm - - -
1788199202 18.89° C 70% 1018 hPa 0 mm - - -
1788198302 20.56° C 62% 1018 hPa 0 mm - - -
1788197402 21.11° C 60% 1018 hPa 0 mm - - -
1788196502 22.22° C 55% 1018 hPa 0 mm - - -
1788195602 22.78° C 53% 1018 hPa 0 mm - - -
1788194702 23.33° C 52% 1018 hPa 0 mm - - -
1788192902 23.33° C 49% 1018 hPa 0 mm - - -
1788191103 25° C 47% 1018 hPa 0 mm - - -
1788190202 25° C 47% 1018 hPa 0 mm - - -
1788189302 23.89° C 49% 1018 hPa 0 mm - - -
1788188402 25° C 47% 1018 hPa 0 mm - - -
1788187502 24.44° C 50% 1018 hPa 0 mm - - -
1788186602 25° C 48% 1018 hPa 0 mm - - -
1788185702 25.56° C 48% 1018 hPa 0 mm - - -
1788184802 25.56° C 49% 1018 hPa 0 mm - - -
1788183902 25° C 50% 1019 hPa 0 mm - - -
1788183002 24.44° C 52% 1019 hPa 0 mm - - -
1788182102 23.89° C 55% 1019 hPa 0 mm - - -
1788181202 23.33° C 59% 1019 hPa 0 mm - - -
1788180302 24.44° C 57% 1019 hPa 0 mm - - -
1788179403 23.33° C 61% 1019 hPa 0 mm - - -
1788178503 25° C 57% 1019 hPa 0 mm - - -
1788177602 23.89° C 59% 1019 hPa 0 mm - - -

* Rain latest hour (hover to see other rain measurements)
** Current wind speed in m/s (hover to see current wind gust speed)